Time;durP1;ratioP1;P1;durP2;ratioP2;P2;SDS_P1;SDS_P2;PMS_P1;PMS_P2;Temp;Humidity;BMP_temperature;BMP_pressure;BME280_temperature;BME280_humidity;BME280_pressure;Samples;Min_cycle;Max_cycle;Signal;HPM_P1;HPM_P2
2021/01/05 00:01:50;;;;;;;22.85;11.75;;;;;;;3.25;100.00;101150.08;1787233;80;21136;-53
2021/01/05 00:04:17;;;;;;;23.00;12.50;;;;;;;3.24;100.00;101135.93;1787462;80;21147;-53
2021/01/05 00:06:45;;;;;;;27.60;13.08;;;;;;;3.23;100.00;101133.30;1787391;80;22388;-53
2021/01/05 00:09:12;;;;;;;28.07;12.88;;;;;;;3.20;100.00;101133.27;1787455;80;20989;-53
2021/01/05 00:12:08;;;;;;;22.40;11.93;;;;;;;3.17;100.00;101133.27;1787425;80;21116;-52
2021/01/05 00:14:41;;;;;;;23.02;12.15;;;;;;;3.15;100.00;101124.87;1787592;80;21836;-52
2021/01/05 00:17:08;;;;;;;25.57;12.45;;;;;;;3.17;100.00;101126.64;1787534;80;21520;-52
2021/01/05 00:19:36;;;;;;;29.25;13.10;;;;;;;3.13;100.00;101141.21;1787484;80;21201;-53
2021/01/05 00:22:04;;;;;;;28.65;13.03;;;;;;;3.10;100.00;101129.28;1787314;80;21182;-53
2021/01/05 00:24:33;;;;;;;25.88;12.70;;;;;;;3.06;100.00;101131.49;1787601;80;21215;-54
2021/01/05 00:27:02;;;;;;;26.25;12.73;;;;;;;3.05;100.00;101113.83;1787402;80;21092;-54
2021/01/05 00:29:30;;;;;;;22.40;10.93;;;;;;;3.06;100.00;101131.49;1787359;80;21119;-54
2021/01/05 00:32:19;;;;;;;23.02;11.73;;;;;;;3.07;100.00;101120.01;1787418;80;21683;-54
2021/01/05 00:34:47;;;;;;;25.52;12.45;;;;;;;3.06;100.00;101116.92;1787262;80;21162;-53
2021/01/05 00:37:15;;;;;;;23.85;12.40;;;;;;;3.03;100.00;101118.24;1786739;80;21105;-52
2021/01/05 00:39:43;;;;;;;21.97;11.25;;;;;;;3.00;100.00;101114.27;1762605;81;21061;-53
2021/01/05 00:42:11;;;;;;;23.20;12.07;;;;;;;2.96;100.00;101117.34;1776942;80;21043;-53
2021/01/05 00:44:39;;;;;;;21.80;11.55;;;;;;;2.97;100.00;101100.98;1762718;81;21351;-53
2021/01/05 00:47:07;;;;;;;23.40;12.70;;;;;;;3.00;100.00;101114.27;1776984;80;21547;-52
2021/01/05 00:49:35;;;;;;;26.25;12.53;;;;;;;3.01;100.00;101091.73;1762823;81;21113;-52
2021/01/05 00:52:03;;;;;;;23.25;12.10;;;;;;;3.03;100.00;101108.08;1776806;80;21071;-53
2021/01/05 00:54:32;;;;;;;19.42;10.63;;;;;;;3.02;100.00;101097.94;1762774;81;21033;-52
2021/01/05 00:57:08;;;;;;;22.42;10.80;;;;;;;3.00;100.00;101089.97;1776854;80;21613;-52
2021/01/05 00:59:38;;;;;;;19.27;11.05;;;;;;;2.99;100.00;101067.01;1762670;81;21133;-52
2021/01/05 01:02:06;;;;;;;23.10;10.93;;;;;;;2.98;100.00;101097.03;1776753;80;21134;-53
2021/01/05 01:04:36;;;;;;;24.45;11.00;;;;;;;2.97;100.00;101067.45;1762675;81;21116;-52
2021/01/05 01:07:05;;;;;;;21.25;10.72;;;;;;;2.94;100.00;101067.45;1776960;80;21170;-53
2021/01/05 01:09:33;;;;;;;19.45;11.15;;;;;;;2.94;100.00;101053.30;1762667;81;21440;-52
2021/01/05 01:12:09;;;;;;;20.12;11.05;;;;;;;2.95;100.00;101032.55;1776826;80;21079;-52
2021/01/05 01:14:37;;;;;;;20.92;10.23;;;;;;;2.96;100.00;101047.56;1761742;81;21145;-53
2021/01/05 01:17:06;;;;;;;23.05;10.80;;;;;;;2.95;100.00;101053.32;1776846;80;21154;-53
2021/01/05 01:19:34;;;;;;;20.85;11.63;;;;;;;2.94;100.00;101050.66;1762620;81;21169;-52
2021/01/05 01:22:02;;;;;;;24.55;11.53;;;;;;;2.95;100.00;101049.35;1776872;80;21498;-53
2021/01/05 01:24:30;;;;;;;20.00;11.35;;;;;;;2.95;100.00;101041.83;1762707;81;21073;-53
2021/01/05 01:27:00;;;;;;;21.90;12.07;;;;;;;2.94;100.00;101029.47;1775008;80;21096;-53
2021/01/05 01:29:29;;;;;;;23.07;11.25;;;;;;;2.95;100.00;101031.23;1762632;81;21522;-53
2021/01/05 01:31:57;;;;;;;22.50;12.03;;;;;;;2.95;100.00;101051.10;1776900;80;21139;-52
2021/01/05 01:34:26;;;;;;;21.60;11.48;;;;;;;2.95;100.00;101021.54;1762568;81;21338;-51
2021/01/05 01:37:03;;;;;;;17.80;10.55;;;;;;;2.98;100.00;101022.86;1777192;80;21207;-53
2021/01/05 01:39:31;;;;;;;21.12;11.15;;;;;;;3.00;100.00;101016.25;1787049;80;21067;-53
2021/01/05 01:42:01;;;;;;;23.55;10.78;;;;;;;3.00;100.00;101010.95;1787015;80;21065;-53
2021/01/05 01:44:33;;;;;;;23.42;11.95;;;;;;;3.01;100.00;101008.75;1787120;80;21512;-53
2021/01/05 01:47:22;;;;;;;24.55;11.80;;;;;;;3.01;100.00;101011.39;1760506;80;21521;-53
2021/01/05 01:49:54;;;;;;;26.82;12.65;;;;;;;3.01;100.00;100998.15;1787098;80;20958;-53
2021/01/05 01:52:45;;;;;;;20.75;11.40;;;;;;;3.04;100.00;100988.88;1787082;80;20930;-52
2021/01/05 01:55:23;;;;;;;24.95;11.78;;;;;;;3.10;100.00;100990.19;1787084;80;21171;-53
2021/01/05 01:58:42;;;;;;;27.75;12.93;;;;;;;3.14;100.00;100990.63;1760489;80;21096;-53
2021/01/05 02:02:00;;;;;;;23.00;11.53;;;;;;;3.14;100.00;100989.30;1786159;80;21385;-52
2021/01/05 02:05:07;;;;;;;28.75;12.78;;;;;;;3.18;100.00;100978.69;1783329;80;21519;-52
2021/01/05 02:08:18;;;;;;;24.35;12.58;;;;;;;3.21;100.00;100985.34;1783612;80;21152;-52
2021/01/05 02:11:13;;;;;;;24.45;12.10;;;;;;;3.25;100.00;100964.58;1784013;80;21132;-53
2021/01/05 02:14:10;;;;;;;23.60;11.88;;;;;;;3.28;100.00;100965.89;1783645;80;21076;-52
2021/01/05 02:17:25;;;;;;;27.75;12.43;;;;;;;3.32;100.00;100955.72;1784197;80;21203;-53
2021/01/05 02:20:00;;;;;;;21.37;11.65;;;;;;;3.35;100.00;100939.80;1783919;80;21056;-52
2021/01/05 02:22:40;;;;;;;27.02;12.35;;;;;;;3.39;100.00;100934.07;1756264;80;21225;-52
2021/01/05 02:25:36;;;;;;;24.75;11.18;;;;;;;3.40;100.00;100947.76;1784045;80;21123;-53
2021/01/05 02:28:04;;;;;;;20.15;11.25;;;;;;;3.42;100.00;100936.25;1784034;80;21147;-53
2021/01/05 02:30:44;;;;;;;25.70;11.73;;;;;;;3.46;100.00;100939.78;1784045;80;21373;-53
2021/01/05 02:33:32;;;;;;;23.62;10.48;;;;;;;3.49;100.00;100932.28;1756412;80;21080;-53
2021/01/05 02:36:41;;;;;;;21.95;11.10;;;;;;;3.50;100.00;100942.00;1784051;80;21077;-52
2021/01/05 02:39:41;;;;;;;25.02;12.40;;;;;;;3.50;100.00;100939.34;1753181;81;21111;-52
2021/01/05 02:43:17;;;;;;;22.48;10.48;;;;;;;3.54;100.00;100947.72;1746789;81;21199;-53
2021/01/05 02:46:38;;;;;;;24.15;9.88;;;;;;;3.57;100.00;100934.45;1752939;81;21387;-53
2021/01/05 02:49:47;;;;;;;21.57;10.55;;;;;;;3.58;100.00;100923.85;1752914;81;21178;-53
2021/01/05 02:53:28;;;;;;;19.73;9.55;;;;;;;3.59;100.00;100934.00;1753028;81;21072;-53
2021/01/05 02:56:53;;;;;;;19.12;9.48;;;;;;;3.58;100.00;100930.91;1752940;81;21135;-53
2021/01/05 03:00:01;;;;;;;21.95;9.90;;;;;;;3.61;100.00;100920.29;1752543;81;36243;-52
2021/01/05 03:03:20;;;;;;;23.95;9.08;;;;;;;3.65;100.00;100908.81;1762698;81;21273;-52
2021/01/05 03:06:32;;;;;;;17.85;9.20;;;;;;;3.70;100.00;100909.67;1767078;81;21143;-53
2021/01/05 03:09:27;;;;;;;25.12;9.85;;;;;;;3.74;100.00;100910.52;1767000;81;21122;-53
2021/01/05 03:12:54;;;;;;;17.45;8.58;;;;;;;3.73;100.00;100907.00;1766996;81;21172;-53
2021/01/05 03:15:48;;;;;;;17.35;8.23;;;;;;;3.71;100.00;100910.11;1767000;81;21125;-52
2021/01/05 03:18:52;;;;;;;20.08;9.15;;;;;;;3.73;100.00;100906.10;1766840;80;21305;-53
2021/01/05 03:21:41;;;;;;;22.93;9.55;;;;;;;3.70;100.00;100893.76;1767043;81;21506;-53
2021/01/05 03:24:27;;;;;;;21.80;10.38;;;;;;;3.70;100.00;100909.67;1767063;80;21193;-52
2021/01/05 03:27:13;;;;;;;23.87;10.58;;;;;;;3.72;100.00;100897.28;1766971;81;21042;-53
2021/01/05 03:29:53;;;;;;;23.00;10.50;;;;;;;3.78;100.00;100906.09;1753880;80;21054;-53
2021/01/05 03:32:40;;;;;;;20.43;9.88;;;;;;;3.80;100.00;100899.01;1766877;81;21364;-53
2021/01/05 03:35:29;;;;;;;22.67;9.35;;;;;;;3.83;100.00;100896.34;1766862;81;21541;-53
2021/01/05 03:38:15;;;;;;;23.10;10.85;;;;;;;3.83;100.00;100898.98;1789705;80;21552;-53
2021/01/05 03:41:01;;;;;;;27.05;11.30;;;;;;;3.82;100.00;100896.80;1775063;80;21063;-53
2021/01/05 03:43:47;;;;;;;19.85;9.78;;;;;;;3.80;100.00;100901.23;1763466;81;21108;-53
2021/01/05 03:46:34;;;;;;;24.05;10.53;;;;;;;3.76;100.00;100916.73;1688720;85;21211;-53
2021/01/05 03:49:20;;;;;;;25.45;11.73;;;;;;;3.71;100.00;100894.20;1699667;84;21157;-52
2021/01/05 03:52:06;;;;;;;27.25;12.03;;;;;;;3.69;100.00;100893.75;1745589;81;21160;-53
2021/01/05 03:54:52;;;;;;;27.17;10.35;;;;;;;3.68;100.00;100882.28;1775238;80;21586;-53
2021/01/05 03:57:38;;;;;;;25.08;11.30;;;;;;;3.68;100.00;100875.65;1763443;81;21096;-53
2021/01/05 04:00:28;;;;;;;28.02;11.63;;;;;;;3.68;100.00;100898.19;1775289;80;21460;-54
2021/01/05 04:02:58;;;;;;;28.52;11.15;;;;;;;3.66;100.00;100906.59;1761546;81;21145;-51
2021/01/05 04:05:27;;;;;;;33.83;12.03;;;;;;;3.64;100.00;100920.27;1774849;80;21123;-52
2021/01/05 04:07:55;;;;;;;24.30;11.28;;;;;;;3.67;100.00;100922.05;1760598;81;21156;-53
2021/01/05 04:10:23;;;;;;;26.50;11.68;;;;;;;3.68;100.00;100941.05;1774890;80;21456;-52
2021/01/05 04:12:51;;;;;;;29.77;12.18;;;;;;;3.69;100.00;100921.16;1760542;81;21404;-53
2021/01/05 04:15:23;;;;;;;29.98;12.28;;;;;;;3.73;100.00;100920.69;1774713;80;21059;-53
2021/01/05 04:17:51;;;;;;;31.82;12.80;;;;;;;3.75;100.00;100916.72;1760678;81;21066;-53
2021/01/05 04:20:20;;;;;;;27.30;11.48;;;;;;;3.77;100.00;100938.37;1774758;80;21487;-53
2021/01/05 04:22:47;;;;;;;23.83;12.00;;;;;;;3.78;100.00;100910.07;1760572;81;21094;-53
2021/01/05 04:25:16;;;;;;;28.80;11.60;;;;;;;3.78;100.00;100908.74;1774706;80;21413;-52
2021/01/05 04:27:43;;;;;;;23.18;11.28;;;;;;;3.77;100.00;100892.39;1760491;81;21057;-53
2021/01/05 04:30:19;;;;;;;29.75;12.03;;;;;;;3.77;100.00;100901.67;1774712;80;21080;-53
2021/01/05 04:32:47;;;;;;;23.70;11.40;;;;;;;3.76;100.00;100909.20;1756328;81;21112;-53
2021/01/05 04:35:15;;;;;;;25.60;13.40;;;;;;;3.73;100.00;100896.39;1774602;80;21166;-54
2021/01/05 04:37:43;;;;;;;26.48;13.00;;;;;;;3.73;100.00;100884.89;1761767;81;22190;-52
2021/01/05 04:40:35;;;;;;;23.00;12.68;;;;;;;3.73;100.00;100901.70;1793690;80;21079;-53
2021/01/05 04:43:20;;;;;;;26.82;12.43;;;;;;;3.76;100.00;100902.14;1762501;81;21045;-53
2021/01/05 04:46:08;;;;;;;23.75;12.00;;;;;;;3.77;100.00;100901.67;1793963;80;21130;-53
2021/01/05 04:48:42;;;;;;;29.05;12.05;;;;;;;3.80;100.00;100896.36;1762425;81;21105;-53
2021/01/05 04:51:15;;;;;;;28.55;11.95;;;;;;;3.84;100.00;100894.12;1774053;80;21431;-52
2021/01/05 04:53:59;;;;;;;25.75;11.57;;;;;;;3.85;100.00;100887.49;1761240;81;21161;-52
2021/01/05 04:56:33;;;;;;;29.30;12.85;;;;;;;3.88;100.00;100901.20;1756819;80;21105;-52
2021/01/05 04:59:00;;;;;;;29.77;13.32;;;;;;;3.88;100.00;100883.95;1761671;81;21026;-52
2021/01/05 05:01:33;;;;;;;26.93;12.07;;;;;;;3.87;100.00;100894.13;1773904;80;21127;-52
2021/01/05 05:04:18;;;;;;;26.15;12.13;;;;;;;3.87;100.00;100895.46;1762315;81;21329;-53
2021/01/05 05:07:18;;;;;;;26.30;11.80;;;;;;;3.85;100.00;100909.14;1793813;80;21145;-52
2021/01/05 05:10:08;;;;;;;28.83;12.63;;;;;;;3.86;100.00;100925.49;1762526;81;21006;-53
2021/01/05 05:12:53;;;;;;;22.48;11.60;;;;;;;3.90;100.00;100900.75;1773897;80;21158;-53
2021/01/05 05:15:46;;;;;;;29.00;11.40;;;;;;;3.92;100.00;100915.30;1762313;81;21058;-53
2021/01/05 05:18:28;;;;;;;22.77;10.90;;;;;;;3.93;100.00;100902.05;1772862;80;21359;-58
2021/01/05 05:21:28;;;;;;;27.80;11.55;;;;;;;3.94;100.00;100899.83;1762311;81;21145;-53
2021/01/05 05:24:16;;;;;;;25.17;10.80;;;;;;;3.93;100.00;100898.07;1793814;80;21149;-52
2021/01/05 05:27:15;;;;;;;28.67;11.05;;;;;;;3.95;100.00;100913.53;1762496;81;21037;-52
2021/01/05 05:29:59;;;;;;;22.52;10.03;;;;;;;3.96;100.00;100916.62;1793757;80;21082;-53
2021/01/05 05:32:46;;;;;;;22.85;10.53;;;;;;;3.97;100.00;100909.53;1762500;81;21386;-52
2021/01/05 05:35:45;;;;;;;27.42;12.53;;;;;;;3.99;100.00;100907.31;1773781;80;21083;-53
2021/01/05 05:38:24;;;;;;;25.35;11.33;;;;;;;4.01;100.00;100914.82;1763406;81;21130;-53
2021/01/05 05:41:19;;;;;;;31.70;11.40;;;;;;;4.01;100.00;100896.71;1764043;81;21058;-53
2021/01/05 05:44:23;;;;;;;24.80;10.23;;;;;;;3.99;100.00;100903.34;1763915;81;21189;-53
2021/01/05 05:47:04;;;;;;;26.12;9.68;;;;;;;3.98;100.00;100912.65;1764100;81;21202;-53
2021/01/05 05:50:05;;;;;;;23.07;10.48;;;;;;;3.96;100.00;100913.97;1763948;81;21086;-52
2021/01/05 05:52:45;;;;;;;21.48;9.38;;;;;;;3.96;100.00;100902.03;1764007;81;21146;-52
2021/01/05 05:55:30;;;;;;;18.23;8.23;;;;;;;3.95;100.00;100899.38;1786821;80;21050;-53
2021/01/05 05:57:58;;;;;;;22.60;9.33;;;;;;;3.94;100.00;100923.70;1776582;80;21149;-54
2021/01/05 06:00:43;;;;;;;26.52;9.65;;;;;;;3.95;100.00;100928.13;1786719;80;21370;-52
2021/01/05 06:03:14;;;;;;;19.62;10.05;;;;;;;3.95;100.00;100925.47;1791306;79;21061;-53
2021/01/05 06:05:43;;;;;;;24.72;10.05;;;;;;;3.94;100.00;100920.16;1798478;79;20920;-53
2021/01/05 06:08:12;;;;;;;22.00;9.70;;;;;;;3.94;100.00;100930.77;1798538;79;21062;-53
2021/01/05 06:10:40;;;;;;;19.48;9.20;;;;;;;3.96;100.00;100929.89;1798567;79;21102;-53
2021/01/05 06:13:08;;;;;;;23.75;8.78;;;;;;;3.95;100.00;100933.44;1798725;79;21196;-53
2021/01/05 06:15:35;;;;;;;23.67;9.78;;;;;;;3.95;100.00;100929.45;1798539;79;21188;-52
2021/01/05 06:18:07;;;;;;;25.52;10.58;;;;;;;3.96;100.00;100926.34;1798624;79;21472;-51
2021/01/05 06:20:34;;;;;;;21.57;9.68;;;;;;;3.97;100.00;100940.94;1798456;79;21164;-53
2021/01/05 06:23:03;;;;;;;24.77;9.13;;;;;;;3.98;100.00;100917.95;1798592;79;21050;-53
2021/01/05 06:25:30;;;;;;;20.82;9.18;;;;;;;3.98;100.00;100928.11;1798463;79;21186;-53
2021/01/05 06:27:58;;;;;;;22.37;8.78;;;;;;;3.99;100.00;100949.77;1798468;79;21541;-53
2021/01/05 06:30:26;;;;;;;21.10;9.45;;;;;;;3.98;100.00;100941.38;1798490;79;21180;-53
2021/01/05 06:32:53;;;;;;;22.65;9.78;;;;;;;3.98;100.00;100929.44;1798511;79;21108;-53
2021/01/05 06:35:23;;;;;;;19.15;9.15;;;;;;;3.98;100.00;100958.62;1798482;79;21058;-53
2021/01/05 06:37:51;;;;;;;22.35;9.50;;;;;;;3.99;100.00;100933.84;1777043;79;21529;-53
2021/01/05 06:40:22;;;;;;;23.57;9.70;;;;;;;3.96;100.00;100943.16;1796745;79;21132;-53
2021/01/05 06:42:50;;;;;;;22.85;9.03;;;;;;;3.91;100.00;100944.95;1776644;80;21059;-54
2021/01/05 06:45:22;;;;;;;22.55;9.58;;;;;;;3.89;100.00;100937.45;1765183;81;21157;-54
2021/01/05 06:47:53;;;;;;;21.55;9.05;;;;;;;3.88;100.00;100931.70;1796818;79;21134;-53
2021/01/05 06:50:22;;;;;;;27.55;9.70;;;;;;;3.86;100.00;100950.70;1765287;81;21440;-53
2021/01/05 06:52:49;;;;;;;29.30;10.72;;;;;;;3.87;100.00;100940.55;1796703;79;21087;-54
2021/01/05 06:55:18;;;;;;;26.40;10.70;;;;;;;3.90;100.00;100964.84;1765323;81;21105;-54
2021/01/05 06:57:46;;;;;;;21.12;10.23;;;;;;;3.90;100.00;100951.58;1796839;79;21145;-53
2021/01/05 07:00:21;;;;;;;22.17;9.68;;;;;;;3.91;100.00;100951.58;1765304;81;21061;-54
2021/01/05 07:02:48;;;;;;;23.42;9.53;;;;;;;3.92;100.00;100940.52;1765159;81;22273;-54
2021/01/05 07:05:16;;;;;;;29.50;11.12;;;;;;;3.90;100.00;100912.69;1762305;81;21117;-52
2021/01/05 07:07:43;;;;;;;30.48;10.80;;;;;;;3.91;100.00;100906.91;1773836;80;21549;-54
2021/01/05 07:10:12;;;;;;;23.52;10.23;;;;;;;3.93;100.00;100908.69;1762341;81;21226;-54
2021/01/05 07:12:39;;;;;;;27.27;10.95;;;;;;;3.94;100.00;100935.65;1773855;80;21143;-54
2021/01/05 07:15:08;;;;;;;31.95;11.45;;;;;;;3.93;100.00;100921.95;1762334;81;21331;-53
2021/01/05 07:17:36;;;;;;;25.65;10.45;;;;;;;3.92;100.00;100922.84;1793529;80;21015;-53
2021/01/05 07:20:08;;;;;;;27.20;11.55;;;;;;;3.92;100.00;100937.42;1762327;81;21133;-54
2021/01/05 07:22:36;;;;;;;32.93;12.43;;;;;;;3.93;100.00;100921.95;1793678;80;21118;-54
2021/01/05 07:25:07;;;;;;;38.02;12.05;;;;;;;3.93;100.00;100905.13;1762341;81;21165;-53
2021/01/05 07:27:34;;;;;;;30.50;12.13;;;;;;;3.92;100.00;100920.19;1773721;80;21276;-53
2021/01/05 07:30:04;;;;;;;31.75;11.22;;;;;;;3.93;100.00;100911.34;1762272;81;21066;-53
2021/01/05 07:32:32;;;;;;;26.93;11.12;;;;;;;3.93;100.00;100912.66;1773817;80;21055;-54
2021/01/05 07:34:59;;;;;;;22.60;9.95;;;;;;;3.95;100.00;100887.44;1762535;81;21061;-53
2021/01/05 07:37:30;;;;;;;25.35;11.05;;;;;;;3.98;100.00;100888.77;1761516;81;21125;-52
2021/01/05 07:39:57;;;;;;;26.97;11.18;;;;;;;3.98;100.00;100893.61;1774745;80;21374;-54
2021/01/05 07:42:30;;;;;;;23.20;10.23;;;;;;;3.96;100.00;100884.78;1760494;81;21172;-54
2021/01/05 07:45:08;;;;;;;20.97;9.60;;;;;;;3.95;100.00;100894.97;1774861;80;21546;-53
2021/01/05 07:47:37;;;;;;;30.90;10.30;;;;;;;3.94;100.00;100889.22;1760607;81;21173;-54
2021/01/05 07:50:07;;;;;;;22.02;9.95;;;;;;;3.96;100.00;100882.13;1774831;80;21024;-54
2021/01/05 07:52:38;;;;;;;29.60;11.28;;;;;;;3.99;100.00;100886.09;1760627;81;21192;-54
2021/01/05 07:55:15;;;;;;;22.80;10.15;;;;;;;4.00;100.00;100867.95;1774653;80;21103;-54
2021/01/05 07:57:43;;;;;;;27.80;10.38;;;;;;;3.99;100.00;100886.55;1760265;81;21073;-54
2021/01/05 08:00:25;;;;;;;26.15;10.50;;;;;;;3.97;100.00;100893.18;1774616;80;21080;-54
2021/01/05 08:02:54;;;;;;;27.02;11.65;;;;;;;3.95;100.00;100894.97;1761537;80;21058;-53
2021/01/05 08:05:25;;;;;;;24.72;11.12;;;;;;;3.94;100.00;100881.27;1779254;80;22243;-61
2021/01/05 08:07:53;;;;;;;29.72;10.80;;;;;;;3.94;100.00;100899.83;1768085;80;21089;-61
2021/01/05 08:10:30;;;;;;;25.97;10.55;;;;;;;3.94;100.00;100903.81;1761403;80;21207;-59
2021/01/05 08:12:59;;;;;;;32.58;11.15;;;;;;;3.94;100.00;100883.91;1760105;81;21620;-60
2021/01/05 08:15:29;;;;;;;32.58;13.00;;;;;;;3.97;100.00;100905.12;1760866;81;21081;-60
2021/01/05 08:17:57;;;;;;;35.88;11.73;;;;;;;4.00;100.00;100893.16;1760928;81;22222;-60
2021/01/05 08:20:27;;;;;;;30.30;12.65;;;;;;;4.01;100.00;100896.71;1760757;81;20994;-59
2021/01/05 08:22:55;;;;;;;28.32;11.80;;;;;;;4.02;100.00;100891.84;1761044;81;21561;-62
2021/01/05 08:25:23;;;;;;;28.50;12.07;;;;;;;4.03;100.00;100916.58;1760867;81;21096;-60
2021/01/05 08:27:51;;;;;;;26.77;11.60;;;;;;;4.01;100.00;100888.29;1761311;81;21458;-61
2021/01/05 08:30:23;;;;;;;32.35;12.10;;;;;;;3.99;100.00;100890.07;1761434;81;21231;-60
2021/01/05 08:32:52;;;;;;;28.52;11.48;;;;;;;4.00;100.00;100885.66;1761339;81;21019;-61
2021/01/05 08:35:23;;;;;;;32.73;10.72;;;;;;;4.02;100.00;100871.94;1761393;81;20942;-60
2021/01/05 08:37:51;;;;;;;29.00;11.70;;;;;;;4.06;100.00;100871.45;1779120;80;21050;-60
2021/01/05 08:40:23;;;;;;;32.83;12.07;;;;;;;4.07;100.00;100870.13;1789070;80;21525;-60
2021/01/05 08:42:51;;;;;;;30.05;12.33;;;;;;;4.06;100.00;100890.03;1789084;80;21185;-61
2021/01/05 08:45:20;;;;;;;29.80;11.38;;;;;;;4.04;100.00;100870.58;1788898;80;21128;-61
2021/01/05 08:47:48;;;;;;;30.82;12.35;;;;;;;4.07;100.00;100881.17;1789053;80;21117;-61
2021/01/05 08:50:20;;;;;;;30.85;12.18;;;;;;;4.10;100.00;100878.53;1789052;80;21568;-60
2021/01/05 08:52:47;;;;;;;31.35;12.05;;;;;;;4.13;100.00;100854.63;1789079;80;21113;-59
2021/01/05 08:55:15;;;;;;;28.10;11.93;;;;;;;4.14;100.00;100870.98;1789013;80;21375;-60
2021/01/05 08:57:43;;;;;;;28.57;11.30;;;;;;;4.13;100.00;100857.28;1788980;80;21020;-61
2021/01/05 09:00:13;;;;;;;35.25;12.60;;;;;;;4.14;100.00;100853.73;1789031;80;21040;-60
2021/01/05 09:02:40;;;;;;;29.32;10.85;;;;;;;4.11;100.00;100860.39;1788950;80;21066;-60
2021/01/05 09:05:10;;;;;;;39.88;12.73;;;;;;;4.13;100.00;100867.89;1786613;79;21101;-61
2021/01/05 09:07:37;;;;;;;36.80;13.08;;;;;;;4.17;100.00;100863.00;1771408;81;21539;-61
2021/01/05 09:10:07;;;;;;;31.33;11.73;;;;;;;4.18;100.00;100855.47;1754846;81;21231;-62
2021/01/05 09:12:35;;;;;;;28.75;11.55;;;;;;;4.21;100.00;100858.09;1771349;80;21084;-61
2021/01/05 09:15:04;;;;;;;31.45;12.58;;;;;;;4.18;100.00;100858.13;1754979;81;21074;-60
2021/01/05 09:17:32;;;;;;;32.48;12.88;;;;;;;4.19;100.00;100858.55;1771392;81;21078;-61
2021/01/05 09:19:59;;;;;;;30.23;11.55;;;;;;;4.22;100.00;100855.88;1754875;81;22353;-61
2021/01/05 09:22:27;;;;;;;31.50;11.70;;;;;;;4.25;100.00;100867.80;1771277;81;21140;-61
2021/01/05 09:24:55;;;;;;;33.83;14.03;;;;;;;4.27;100.00;100868.66;1755037;81;21153;-60
2021/01/05 09:27:23;;;;;;;29.15;12.28;;;;;;;4.27;100.00;100847.42;1771366;81;22296;-61
2021/01/05 09:29:50;;;;;;;34.30;12.40;;;;;;;4.26;100.00;100856.28;1755001;81;21188;-61
2021/01/05 09:32:17;;;;;;;35.05;12.53;;;;;;;4.25;100.00;100867.80;1771410;81;21426;-60
2021/01/05 09:34:45;;;;;;;35.08;12.65;;;;;;;4.22;100.00;100865.16;1754844;81;21197;-61
2021/01/05 09:37:13;;;;;;;29.15;11.78;;;;;;;4.20;100.00;100860.31;1772188;80;21123;-60
2021/01/05 09:39:40;;;;;;;27.55;11.65;;;;;;;4.22;100.00;100854.55;1756646;81;21149;-60
2021/01/05 09:42:09;;;;;;;29.30;12.45;;;;;;;4.26;100.00;100844.80;1776912;80;21559;-61
2021/01/05 09:44:36;;;;;;;30.52;12.37;;;;;;;4.29;100.00;100848.75;1776764;80;21200;-62
2021/01/05 09:47:04;;;;;;;34.27;11.40;;;;;;;4.29;100.00;100843.45;1776777;80;21142;-61
2021/01/05 09:49:31;;;;;;;39.48;13.35;;;;;;;4.29;100.00;100836.81;1756697;81;20986;-60
2021/01/05 09:52:00;;;;;;;25.35;11.20;;;;;;;4.27;100.00;100823.53;1770836;81;21110;-61
2021/01/05 09:54:28;;;;;;;30.82;12.20;;;;;;;4.28;100.00;100827.95;1756676;81;21141;-61
2021/01/05 09:56:56;;;;;;;29.52;11.95;;;;;;;4.25;100.00;100827.98;1776915;80;21581;-62
2021/01/05 09:59:28;;;;;;;29.52;12.25;;;;;;;4.25;100.00;100822.67;1756725;81;21510;-61
2021/01/05 10:01:56;;;;;;;29.70;12.90;;;;;;;4.26;100.00;100835.05;1776801;80;21610;-60
2021/01/05 10:04:25;;;;;;;35.35;14.03;;;;;;;4.24;100.00;100828.88;1782455;80;21058;-61
2021/01/05 10:06:52;;;;;;;39.08;14.15;;;;;;;4.23;100.00;100836.87;1762445;81;21069;-60
2021/01/05 10:09:21;;;;;;;34.63;13.30;;;;;;;4.23;100.00;100823.13;1773795;80;21444;-60
2021/01/05 10:11:48;;;;;;;31.27;12.13;;;;;;;4.24;100.00;100820.91;1762320;81;21145;-60
2021/01/05 10:14:19;;;;;;;30.95;11.30;;;;;;;4.25;100.00;100825.33;1773877;80;21174;-61
2021/01/05 10:16:55;;;;;;;28.10;11.75;;;;;;;4.24;100.00;100812.95;1762333;81;21157;-61
2021/01/05 10:19:23;;;;;;;33.70;11.63;;;;;;;4.24;100.00;100812.09;1773907;80;21480;-61
2021/01/05 10:21:51;;;;;;;30.60;11.60;;;;;;;4.23;100.00;100819.15;1762274;81;21370;-60
2021/01/05 10:24:19;;;;;;;29.50;11.33;;;;;;;4.23;100.00;100803.69;1793650;80;21126;-60
2021/01/05 10:26:54;;;;;;;31.23;10.72;;;;;;;4.22;100.00;100800.61;1762312;81;21141;-61
2021/01/05 10:29:23;;;;;;;30.15;11.45;;;;;;;4.21;100.00;100797.05;1793822;80;21162;-60
2021/01/05 10:31:51;;;;;;;29.92;11.30;;;;;;;4.20;100.00;100776.72;1762385;81;21137;-61
2021/01/05 10:34:21;;;;;;;33.42;10.95;;;;;;;4.21;100.00;100781.59;1791429;79;21166;-61
2021/01/05 10:36:55;;;;;;;32.00;13.20;;;;;;;4.19;100.00;100784.25;1777886;80;21128;-61
2021/01/05 10:39:24;;;;;;;34.40;11.68;;;;;;;4.16;100.00;100795.75;1775814;80;21060;-60
2021/01/05 10:41:51;;;;;;;27.65;11.95;;;;;;;4.19;100.00;100797.52;1776144;78;21097;-60
2021/01/05 10:44:21;;;;;;;30.00;11.65;;;;;;;4.21;100.00;100778.48;1760612;80;21116;-60
2021/01/05 10:46:49;;;;;;;30.12;11.60;;;;;;;4.22;100.00;100782.89;1755198;81;21371;-60
2021/01/05 10:49:16;;;;;;;26.82;11.00;;;;;;;4.21;100.00;100778.48;1755170;81;21144;-61
2021/01/05 10:51:48;;;;;;;28.60;12.15;;;;;;;4.21;100.00;100767.86;1755191;81;22270;-61
2021/01/05 10:54:17;;;;;;;33.48;11.55;;;;;;;4.21;100.00;100777.14;1755061;81;21176;-61
2021/01/05 10:56:45;;;;;;;28.02;11.53;;;;;;;4.22;100.00;100753.70;1772744;80;21033;-60
2021/01/05 10:59:13;;;;;;;36.05;11.73;;;;;;;4.22;100.00;100762.98;1785420;80;21187;-61
2021/01/05 11:01:41;;;;;;;27.20;12.03;;;;;;;4.23;100.00;100750.14;1777880;80;21065;-60
2021/01/05 11:04:09;;;;;;;28.12;12.88;;;;;;;4.26;100.00;100759.41;1787393;79;21112;-62
2021/01/05 11:06:37;;;;;;;33.08;13.32;;;;;;;4.28;100.00;100745.67;1798053;79;21102;-61
2021/01/05 11:09:05;;;;;;;33.88;13.22;;;;;;;4.31;100.00;100739.47;1798442;79;21165;-60
2021/01/05 11:11:33;;;;;;;31.35;12.55;;;;;;;4.33;100.00;100738.14;1798055;79;21347;-62
2021/01/05 11:14:01;;;;;;;47.23;17.77;;;;;;;4.32;100.00;100733.72;1798247;79;21164;-60
2021/01/05 11:16:28;;;;;;;30.08;13.32;;;;;;;4.32;100.00;100731.94;1798270;79;21145;-61
2021/01/05 11:18:56;;;;;;;36.45;13.30;;;;;;;4.35;100.00;100721.75;1798265;79;21149;-62
2021/01/05 11:21:23;;;;;;;35.03;13.05;;;;;;;4.35;100.00;100724.40;1798257;79;21055;-61
2021/01/05 11:23:51;;;;;;;35.43;12.82;;;;;;;4.36;100.00;100728.81;1798290;79;21528;-62
2021/01/05 11:26:18;;;;;;;32.15;13.28;;;;;;;4.39;100.00;100730.11;1798389;79;21114;-61
2021/01/05 11:28:48;;;;;;;32.35;13.35;;;;;;;4.39;100.00;100728.31;1798001;79;21215;-61
2021/01/05 11:31:15;;;;;;;42.70;14.10;;;;;;;4.43;100.00;100727.84;1798478;79;21169;-61
2021/01/05 11:33:43;;;;;;;35.25;13.85;;;;;;;4.46;100.00;100721.17;1798489;79;21030;-61
2021/01/05 11:36:11;;;;;;;37.67;13.20;;;;;;;4.46;100.00;100710.55;1798561;79;21434;-61
2021/01/05 11:38:38;;;;;;;37.50;13.25;;;;;;;4.49;100.00;100714.50;1764280;79;21197;-61
2021/01/05 11:41:08;;;;;;;37.95;13.22;;;;;;;4.49;100.00;100710.52;1774697;80;21158;-61
2021/01/05 11:43:35;;;;;;;30.32;12.45;;;;;;;4.51;100.00;100714.03;1763356;81;21042;-60
2021/01/05 11:46:08;;;;;;;30.80;12.70;;;;;;;4.53;100.00;100728.20;1775176;80;21088;-61
2021/01/05 11:48:36;;;;;;;30.00;11.30;;;;;;;4.59;100.00;100737.42;1763473;81;21367;-61